Bayview, Wisconsin
Current Conditions -  °F | °C
As of 1:52 PM on Thursday 29 Jan 2015 (Local Time) from KMKE Reporting Station
Overcast Overcast  
Wind Chill: -4°   Ceiling: 2300
Heat Index:   Visibility: 10mi
Dew Point: -4°   Wind: 14mph
Humidity: 67%   Direction: 330°NNW
Pressure: 29.96"   Gusts: 22mph
Location:  42.9708°N, 87.8754°W
Report Text: KMKE 291952Z 33012G19KT 10SM OVC023 01/M04 A2996 RMK AO2 SLP152 T00111044
Loading
Personal Weather Stations






























Interactive Weather Map New forecast layout! Learn more

10-Day Weather Forecast

Advertisements
Track Severe Weather on mobile